createdAt,value
2022-12-13T00:00:35.253Z,10.00
2022-12-13T00:03:05.400Z,10.00
2022-12-13T00:05:31.864Z,10.00
2022-12-13T00:07:58.367Z,10.10
2022-12-13T00:10:24.849Z,10.00
2022-12-13T00:12:51.311Z,10.10
2022-12-13T00:15:17.778Z,10.10
2022-12-13T00:17:44.229Z,10.10
2022-12-13T00:20:10.903Z,10.00
2022-12-13T00:22:37.365Z,10.00
2022-12-13T00:25:03.844Z,10.00
2022-12-13T00:27:30.311Z,10.00
2022-12-13T00:29:56.802Z,10.10
2022-12-13T00:32:23.306Z,10.00
2022-12-13T00:34:49.822Z,10.00
2022-12-13T00:37:16.279Z,10.00
2022-12-13T00:39:42.743Z,10.00
2022-12-13T00:42:09.221Z,10.00
2022-12-13T00:44:35.678Z,10.00
2022-12-13T00:47:02.134Z,10.00
2022-12-13T00:49:29.238Z,10.00
2022-12-13T00:51:55.704Z,10.00
2022-12-13T00:54:22.166Z,10.00
2022-12-13T00:56:48.636Z,10.10
2022-12-13T00:59:15.097Z,10.00
2022-12-13T01:01:41.616Z,10.00
2022-12-13T01:04:08.120Z,10.10
2022-12-13T01:06:34.589Z,10.00
2022-12-13T01:09:01.062Z,10.10
2022-12-13T01:11:27.524Z,10.00
2022-12-13T01:13:59.414Z,10.00
2022-12-13T01:16:25.910Z,10.00
2022-12-13T01:18:53.262Z,10.00
2022-12-13T01:21:19.735Z,10.00
2022-12-13T01:23:46.193Z,10.00
2022-12-13T01:26:12.663Z,10.00
2022-12-13T01:28:39.121Z,9.90
2022-12-13T01:31:11.343Z,10.00
2022-12-13T01:33:41.508Z,10.00
2022-12-13T01:36:07.972Z,10.00
2022-12-13T01:38:37.931Z,10.00
2022-12-13T01:41:17.051Z,10.00
2022-12-13T01:43:44.384Z,9.90
2022-12-13T01:46:11.356Z,9.90
2022-12-13T01:48:37.870Z,9.90
2022-12-13T01:51:04.364Z,9.90
2022-12-13T01:53:35.409Z,9.90
2022-12-13T01:58:52.704Z,9.90
2022-12-13T02:01:19.231Z,9.90
2022-12-13T02:03:45.716Z,9.90
2022-12-13T02:06:17.351Z,9.90
2022-12-13T02:08:43.818Z,9.90
2022-12-13T02:11:10.287Z,9.90
2022-12-13T02:13:37.097Z,9.90
2022-12-13T02:16:03.622Z,9.90
2022-12-13T02:18:35.519Z,9.90
2022-12-13T02:21:01.990Z,9.90
2022-12-13T02:23:29.348Z,9.90
2022-12-13T02:25:55.797Z,9.90
2022-12-13T02:28:31.474Z,9.90
2022-12-13T02:30:58.777Z,9.90
2022-12-13T02:33:25.284Z,9.90
2022-12-13T02:35:52.823Z,9.90
2022-12-13T02:38:24.459Z,9.80
2022-12-13T02:40:51.264Z,9.90
2022-12-13T02:43:23.515Z,9.90
2022-12-13T02:45:49.999Z,9.90
2022-12-13T02:48:16.459Z,9.90
2022-12-13T02:50:42.942Z,9.90
2022-12-13T02:53:09.408Z,9.90
2022-12-13T02:55:35.869Z,9.90
2022-12-13T02:58:05.562Z,9.90
2022-12-13T03:00:32.024Z,9.90
2022-12-13T03:02:59.477Z,9.80
2022-12-13T03:05:26.018Z,9.90
2022-12-13T03:07:52.508Z,9.90
2022-12-13T03:10:19.000Z,9.90
2022-12-13T03:12:45.454Z,9.80
2022-12-13T03:15:12.111Z,9.90
2022-12-13T03:17:38.762Z,9.80
2022-12-13T03:20:22.459Z,9.80
2022-12-13T03:22:49.882Z,9.80
2022-12-13T03:25:31.584Z,9.80
2022-12-13T03:28:01.101Z,9.80
2022-12-13T03:30:29.365Z,9.80
2022-12-13T03:32:55.837Z,9.80
2022-12-13T03:35:23.426Z,9.80
2022-12-13T03:37:49.963Z,9.80
2022-12-13T03:40:16.411Z,9.80
2022-12-13T03:42:42.873Z,9.80
2022-12-13T03:45:11.426Z,9.80
2022-12-13T03:47:37.891Z,9.80
2022-12-13T03:50:25.618Z,9.80
2022-12-13T03:52:50.818Z,9.80
2022-12-13T03:55:17.396Z,9.80
2022-12-13T03:57:47.431Z,9.80
2022-12-13T04:00:13.895Z,9.80
2022-12-13T04:02:40.408Z,9.80
2022-12-13T04:05:06.887Z,9.90
2022-12-13T04:07:34.056Z,9.80
2022-12-13T04:10:00.970Z,9.90
2022-12-13T04:12:27.450Z,9.80
2022-12-13T04:14:53.899Z,9.70
2022-12-13T04:17:20.382Z,9.80
2022-12-13T04:19:46.819Z,9.80
2022-12-13T04:22:13.301Z,9.80
2022-12-13T04:24:39.751Z,9.80
2022-12-13T04:27:06.236Z,9.80
2022-12-13T04:29:34.303Z,9.80
2022-12-13T04:32:01.528Z,9.80
2022-12-13T04:34:30.690Z,9.80
2022-12-13T04:37:01.641Z,9.80
2022-12-13T04:39:28.092Z,9.80
2022-12-13T04:42:01.054Z,9.80
2022-12-13T04:44:31.468Z,9.80
2022-12-13T04:47:01.444Z,9.80
2022-12-13T04:49:28.074Z,9.80
2022-12-13T04:51:59.019Z,9.80
2022-12-13T04:54:35.544Z,9.80
2022-12-13T04:57:03.423Z,9.80
2022-12-13T04:59:35.518Z,9.80
2022-12-13T05:02:11.642Z,9.70
2022-12-13T05:04:38.167Z,9.80
2022-12-13T05:07:05.443Z,9.70
2022-12-13T05:12:23.528Z,9.80
2022-12-13T05:14:53.522Z,9.80
2022-12-13T05:17:20.009Z,9.80
2022-12-13T05:19:46.458Z,9.80
2022-12-13T05:22:20.625Z,9.70
2022-12-13T05:24:47.603Z,9.70
2022-12-13T05:27:24.030Z,9.80
2022-12-13T05:29:57.670Z,9.70
2022-12-13T05:32:30.511Z,9.70
2022-12-13T05:34:56.959Z,9.80
2022-12-13T05:37:23.400Z,9.80
2022-12-13T05:39:49.872Z,9.70
2022-12-13T05:42:16.337Z,9.70
2022-12-13T05:44:42.811Z,9.70
2022-12-13T05:47:11.513Z,9.70
2022-12-13T05:49:41.506Z,9.70
2022-12-13T05:52:07.955Z,9.70
2022-12-13T05:54:35.533Z,9.70
2022-12-13T05:57:02.000Z,9.70
2022-12-13T05:59:28.460Z,9.70
2022-12-13T06:01:54.952Z,9.70
2022-12-13T06:04:22.076Z,9.70
2022-12-13T06:06:51.136Z,9.70
2022-12-13T06:09:17.913Z,9.70
2022-12-13T06:11:44.369Z,9.70
2022-12-13T06:14:21.643Z,9.70
2022-12-13T06:16:53.685Z,9.70
2022-12-13T06:19:23.549Z,9.70
2022-12-13T06:21:50.013Z,9.70
2022-12-13T06:24:16.474Z,9.70
2022-12-13T06:26:45.170Z,9.70
2022-12-13T06:29:12.438Z,9.70
2022-12-13T06:31:38.921Z,9.70
2022-12-13T06:34:14.227Z,9.70
2022-12-13T06:36:41.779Z,9.60
2022-12-13T06:39:08.233Z,9.60
2022-12-13T06:41:35.562Z,9.60
2022-12-13T06:44:02.009Z,9.70
2022-12-13T06:46:28.536Z,9.70
2022-12-13T06:48:55.014Z,9.70
2022-12-13T06:51:23.119Z,9.60
2022-12-13T06:54:00.814Z,9.60
2022-12-13T06:56:27.523Z,9.70
2022-12-13T06:58:53.978Z,9.60
2022-12-13T07:01:28.629Z,9.60
2022-12-13T07:04:05.554Z,9.60
2022-12-13T07:06:52.010Z,9.70
2022-12-13T07:09:18.463Z,9.60
2022-12-13T07:11:51.439Z,9.60
2022-12-13T07:14:18.660Z,9.60
2022-12-13T07:16:45.119Z,9.60
2022-12-13T07:19:22.730Z,9.60
2022-12-13T07:21:53.593Z,9.60
2022-12-13T07:24:27.706Z,9.60
2022-12-13T07:26:54.184Z,9.60
2022-12-13T07:29:22.188Z,9.60
2022-12-13T07:31:53.613Z,9.60
2022-12-13T07:34:27.680Z,9.60
2022-12-13T07:36:54.138Z,9.60
2022-12-13T07:39:20.614Z,9.60
2022-12-13T07:41:47.094Z,9.60
2022-12-13T07:44:13.553Z,9.60
2022-12-13T07:46:41.641Z,9.60
2022-12-13T07:49:08.125Z,9.60
2022-12-13T07:51:34.607Z,9.60
2022-12-13T07:54:01.055Z,9.50
2022-12-13T07:56:33.140Z,9.60
2022-12-13T07:58:59.599Z,9.60
2022-12-13T08:01:26.128Z,9.60
2022-12-13T08:03:52.618Z,9.60
2022-12-13T08:06:19.073Z,9.60
2022-12-13T08:08:45.546Z,9.60
2022-12-13T08:11:12.018Z,9.60
2022-12-13T08:13:38.483Z,9.60
2022-12-13T08:16:05.648Z,9.60
2022-12-13T08:18:52.073Z,9.50
2022-12-13T08:21:53.487Z,9.60
2022-12-13T08:24:16.109Z,9.60
2022-12-13T08:26:42.585Z,9.60
2022-12-13T08:29:09.050Z,9.60
2022-12-13T08:31:35.782Z,9.60
2022-12-13T08:34:05.823Z,9.50
2022-12-13T08:36:32.309Z,9.60
2022-12-13T08:38:58.751Z,9.60
2022-12-13T08:41:25.238Z,9.50
2022-12-13T08:43:51.709Z,9.50
2022-12-13T08:46:18.276Z,9.50
2022-12-13T08:48:45.114Z,9.60
2022-12-13T08:51:11.944Z,9.50
2022-12-13T08:53:41.211Z,9.60
2022-12-13T08:56:07.941Z,9.60
2022-12-13T08:58:34.392Z,9.60
2022-12-13T09:01:00.927Z,9.50
2022-12-13T09:03:27.427Z,9.50
2022-12-13T09:05:53.907Z,9.50
2022-12-13T09:08:23.643Z,9.50
2022-12-13T09:10:51.782Z,9.60
2022-12-13T09:13:31.345Z,9.60
2022-12-13T09:16:01.479Z,9.60
2022-12-13T09:18:36.186Z,9.60
2022-12-13T09:21:11.071Z,9.60
2022-12-13T09:23:38.632Z,9.70
2022-12-13T09:26:12.383Z,9.70
2022-12-13T09:28:41.648Z,9.60
2022-12-13T09:31:09.493Z,9.60
2022-12-13T09:33:40.783Z,9.60
2022-12-13T09:36:08.108Z,9.60
2022-12-13T09:38:35.774Z,9.60
2022-12-13T09:41:05.710Z,9.60
2022-12-13T09:43:43.273Z,9.60
2022-12-13T09:46:13.299Z,9.60
2022-12-13T09:48:49.800Z,9.70
2022-12-13T09:51:28.709Z,9.70
2022-12-13T09:54:02.722Z,9.70
2022-12-13T09:56:29.185Z,9.70
2022-12-13T09:58:55.657Z,9.70
2022-12-13T10:01:22.286Z,9.70
2022-12-13T10:03:49.627Z,9.70
2022-12-13T10:06:23.392Z,9.70
2022-12-13T10:08:50.400Z,9.70
2022-12-13T10:11:32.293Z,9.70
2022-12-13T10:14:01.465Z,9.70
2022-12-13T10:16:28.355Z,9.70
2022-12-13T10:19:03.020Z,9.70
2022-12-13T10:21:29.509Z,9.70
2022-12-13T10:26:42.504Z,9.70
2022-12-13T10:29:09.005Z,9.70
2022-12-13T10:31:35.572Z,9.70
2022-12-13T10:34:02.076Z,9.70
2022-12-13T10:36:28.560Z,9.60
2022-12-13T10:38:59.786Z,9.70
2022-12-13T10:41:26.259Z,9.70
2022-12-13T10:43:52.713Z,9.70
2022-12-13T10:46:25.068Z,9.70
2022-12-13T10:48:52.005Z,9.70
2022-12-13T10:51:23.774Z,9.70
2022-12-13T10:53:50.247Z,9.70
2022-12-13T10:56:23.712Z,9.70
2022-12-13T10:58:53.877Z,9.70
2022-12-13T11:01:20.398Z,9.70
2022-12-13T11:03:46.896Z,9.70
2022-12-13T11:06:17.774Z,9.70
2022-12-13T11:08:44.244Z,9.70
2022-12-13T11:11:10.707Z,9.70
2022-12-13T11:13:37.170Z,9.70
2022-12-13T11:16:03.644Z,9.70
2022-12-13T11:18:35.982Z,9.80
2022-12-13T11:21:02.446Z,9.80
2022-12-13T11:23:35.817Z,9.80
2022-12-13T11:26:05.812Z,9.80
2022-12-13T11:28:35.991Z,9.70
2022-12-13T11:31:02.455Z,9.80
2022-12-13T11:33:28.945Z,9.80
2022-12-13T11:35:55.438Z,9.80
2022-12-13T11:38:22.145Z,9.80
2022-12-13T11:40:48.785Z,9.80
2022-12-13T11:43:15.251Z,9.80
2022-12-13T11:45:41.809Z,9.70
2022-12-13T11:48:08.367Z,9.70
2022-12-13T11:50:34.938Z,9.80
2022-12-13T11:53:01.419Z,9.80
2022-12-13T11:55:29.770Z,9.80
2022-12-13T11:57:56.224Z,9.80
2022-12-13T12:00:34.312Z,9.80
2022-12-13T12:03:01.563Z,9.80
2022-12-13T12:05:28.189Z,9.80
2022-12-13T12:10:49.659Z,9.80
2022-12-13T12:13:17.986Z,9.80
2022-12-13T12:15:44.481Z,9.80
2022-12-13T12:18:11.828Z,9.80
2022-12-13T12:20:38.343Z,9.80
2022-12-13T12:23:05.853Z,9.80
2022-12-13T12:25:32.313Z,9.70
2022-12-13T12:27:58.806Z,9.70
2022-12-13T12:30:29.923Z,9.80
2022-12-13T12:32:56.403Z,9.80
2022-12-13T12:35:22.853Z,9.80
2022-12-13T12:37:49.321Z,9.80
2022-12-13T12:40:17.882Z,9.80
2022-12-13T12:51:12.036Z,9.80
2022-12-13T12:53:38.497Z,9.80
2022-12-13T12:56:04.951Z,9.80
2022-12-13T12:58:31.408Z,9.80
2022-12-13T13:00:57.870Z,9.80
2022-12-13T13:03:24.328Z,9.70
2022-12-13T13:05:50.797Z,9.70
2022-12-13T13:08:17.887Z,9.70
2022-12-13T13:10:49.712Z,9.80
2022-12-13T13:13:16.749Z,9.80
2022-12-13T13:16:05.959Z,9.80
2022-12-13T13:18:35.893Z,9.80
2022-12-13T13:21:06.031Z,9.80
2022-12-13T13:23:40.710Z,9.80
2022-12-13T13:26:24.573Z,9.80
2022-12-13T13:28:54.085Z,9.80
2022-12-13T13:31:20.566Z,9.70
2022-12-13T13:33:47.063Z,9.80
2022-12-13T13:36:13.532Z,9.70
2022-12-13T13:39:01.264Z,9.80
2022-12-13T13:41:28.290Z,9.80
2022-12-13T13:43:54.761Z,9.80
2022-12-13T13:46:21.291Z,9.80
2022-12-13T13:48:48.016Z,9.80
2022-12-13T13:51:14.502Z,9.80
2022-12-13T13:53:40.969Z,9.80
2022-12-13T13:56:07.428Z,9.80
2022-12-13T13:58:35.873Z,9.80
2022-12-13T14:01:05.934Z,9.80
2022-12-13T14:03:34.780Z,9.80
2022-12-13T14:06:01.645Z,9.80
2022-12-13T14:08:28.174Z,9.80
2022-12-13T14:10:54.668Z,9.80
2022-12-13T14:13:21.139Z,9.80
2022-12-13T14:18:38.255Z,9.80
2022-12-13T14:21:05.921Z,9.80
2022-12-13T14:23:32.391Z,9.70
2022-12-13T14:25:58.858Z,9.70
2022-12-13T14:28:25.630Z,9.80
2022-12-13T14:30:57.702Z,9.80
2022-12-13T14:33:24.553Z,9.80
2022-12-13T14:35:51.333Z,9.70
2022-12-13T14:38:17.820Z,9.80
2022-12-13T14:40:44.302Z,9.80
2022-12-13T14:43:11.923Z,9.80
2022-12-13T14:45:50.808Z,9.80
2022-12-13T14:48:28.198Z,9.70
2022-12-13T14:50:55.791Z,9.70
2022-12-13T14:53:22.604Z,9.70
2022-12-13T14:55:49.314Z,9.70
2022-12-13T14:58:15.795Z,9.80
2022-12-13T15:00:42.354Z,9.80
2022-12-13T15:03:08.876Z,9.80
2022-12-13T15:05:35.375Z,9.80
2022-12-13T15:08:11.996Z,9.80
2022-12-13T15:10:38.546Z,9.80
2022-12-13T15:13:05.036Z,9.80
2022-12-13T15:15:31.557Z,9.70
2022-12-13T15:17:58.042Z,9.70
2022-12-13T15:20:24.610Z,9.80
2022-12-13T15:22:54.043Z,9.70
2022-12-13T15:25:20.555Z,9.80
2022-12-13T15:27:48.404Z,9.70
2022-12-13T15:30:15.251Z,9.70
2022-12-13T15:32:41.759Z,9.70
2022-12-13T15:35:08.251Z,9.80
2022-12-13T15:37:35.983Z,9.70
2022-12-13T15:40:02.474Z,9.70
2022-12-13T15:42:28.949Z,9.70
2022-12-13T15:44:55.436Z,9.70
2022-12-13T15:47:27.931Z,9.70
2022-12-13T15:49:55.639Z,9.70
2022-12-13T15:52:24.015Z,9.70
2022-12-13T15:54:50.492Z,9.70
2022-12-13T15:57:16.972Z,9.70
2022-12-13T15:59:43.435Z,9.70
2022-12-13T16:02:09.932Z,9.70
2022-12-13T16:04:36.410Z,9.70
2022-12-13T16:07:02.915Z,9.70
2022-12-13T16:09:29.404Z,9.70
2022-12-13T16:11:55.898Z,9.70
2022-12-13T16:14:26.142Z,9.70
2022-12-13T16:16:53.055Z,9.70
2022-12-13T16:19:19.599Z,9.70
2022-12-13T16:21:46.072Z,9.70
2022-12-13T16:24:12.557Z,9.70
2022-12-13T16:26:39.034Z,9.70
2022-12-13T16:29:05.528Z,9.70
2022-12-13T16:31:32.054Z,9.70
2022-12-13T16:33:58.575Z,9.70
2022-12-13T16:36:25.066Z,9.70
2022-12-13T16:38:51.552Z,9.70
2022-12-13T16:41:18.065Z,9.70
2022-12-13T16:43:44.563Z,9.70
2022-12-13T16:47:13.038Z,9.70
2022-12-13T16:48:57.500Z,9.60
2022-12-13T16:51:24.024Z,9.70
2022-12-13T16:53:50.508Z,9.70
2022-12-13T16:56:17.003Z,9.60
2022-12-13T16:58:47.894Z,9.70
2022-12-13T17:01:16.525Z,9.70
2022-12-13T17:03:43.062Z,9.60
2022-12-13T17:06:09.570Z,9.70
2022-12-13T17:08:36.040Z,9.70
2022-12-13T17:11:02.555Z,9.70
2022-12-13T17:13:29.584Z,9.70
2022-12-13T17:15:59.818Z,9.70
2022-12-13T17:18:26.564Z,9.60
2022-12-13T17:20:58.148Z,9.60
2022-12-13T17:23:25.652Z,9.60
2022-12-13T17:25:57.834Z,9.60
2022-12-13T17:28:24.735Z,9.60
2022-12-13T17:30:54.833Z,9.60
2022-12-13T17:33:22.060Z,9.70
2022-12-13T17:35:48.665Z,9.60
2022-12-13T17:38:18.115Z,9.60
2022-12-13T17:40:54.852Z,9.60
2022-12-13T17:43:31.458Z,9.60
2022-12-13T17:46:00.679Z,9.60
2022-12-13T17:48:27.561Z,9.50
2022-12-13T17:50:54.522Z,9.50
2022-12-13T17:53:20.994Z,9.60
2022-12-13T17:55:47.462Z,9.50
2022-12-13T17:58:13.928Z,9.60
2022-12-13T18:00:40.389Z,9.60
2022-12-13T18:03:06.929Z,9.60
2022-12-13T18:05:33.446Z,9.60
2022-12-13T18:07:59.912Z,9.60
2022-12-13T18:10:29.694Z,9.60
2022-12-13T18:13:00.144Z,9.60
2022-12-13T18:15:26.685Z,9.60
2022-12-13T18:20:39.704Z,9.60
2022-12-13T18:23:06.203Z,9.50
2022-12-13T18:25:32.667Z,9.50
2022-12-13T18:28:01.216Z,9.60
2022-12-13T18:30:30.113Z,9.50
2022-12-13T18:32:56.575Z,9.50
2022-12-13T18:35:23.029Z,9.50
2022-12-13T18:37:54.160Z,9.50
2022-12-13T18:40:20.619Z,9.50
2022-12-13T18:42:47.082Z,9.50
2022-12-13T18:45:18.286Z,9.50
2022-12-13T18:47:44.740Z,9.50
2022-12-13T18:50:11.209Z,9.50
2022-12-13T18:52:37.675Z,9.50
2022-12-13T18:55:04.144Z,9.50
2022-12-13T18:57:30.644Z,9.50
2022-12-13T18:59:57.099Z,9.50
2022-12-13T19:02:24.194Z,9.50
2022-12-13T19:04:55.090Z,9.60
2022-12-13T19:07:22.289Z,9.50
2022-12-13T19:09:54.897Z,9.50
2022-12-13T19:12:21.694Z,9.60
2022-12-13T19:14:54.801Z,9.60
2022-12-13T19:17:24.129Z,9.50
2022-12-13T19:19:50.607Z,9.50
2022-12-13T19:22:17.063Z,9.50
2022-12-13T19:24:48.199Z,9.50
2022-12-13T19:27:14.657Z,9.50
2022-12-13T19:29:41.121Z,9.50
2022-12-13T19:32:07.575Z,9.50
2022-12-13T19:34:34.040Z,9.50
2022-12-13T19:37:06.096Z,9.50
2022-12-13T19:39:36.200Z,9.50
2022-12-13T19:42:02.660Z,9.50
2022-12-13T19:44:29.130Z,9.50
2022-12-13T19:46:55.695Z,9.50
2022-12-13T19:49:22.217Z,9.50
2022-12-13T19:51:48.683Z,9.40
2022-12-13T19:54:15.147Z,9.40
2022-12-13T19:56:41.611Z,9.50
2022-12-13T19:59:08.063Z,9.50
2022-12-13T20:01:36.249Z,9.40
2022-12-13T20:04:02.741Z,9.50
2022-12-13T20:06:29.207Z,9.50
2022-12-13T20:08:55.668Z,9.50
2022-12-13T20:11:22.117Z,9.50
2022-12-13T20:13:48.594Z,9.50
2022-12-13T20:16:15.246Z,9.50
2022-12-13T20:18:41.756Z,9.40
2022-12-13T20:21:12.984Z,9.40
2022-12-13T20:23:39.909Z,9.50
2022-12-13T20:26:06.372Z,9.40
2022-12-13T20:28:32.836Z,9.50
2022-12-13T20:30:59.344Z,9.40
2022-12-13T20:33:26.040Z,9.50
2022-12-13T20:36:22.648Z,9.50
2022-12-13T20:38:39.280Z,9.40
2022-12-13T20:41:06.235Z,9.40
2022-12-13T20:43:32.721Z,9.40
2022-12-13T20:45:59.205Z,9.50
2022-12-13T20:48:25.677Z,9.40
2022-12-13T20:50:52.159Z,9.40
2022-12-13T20:53:19.822Z,9.40
2022-12-13T20:55:48.579Z,9.40
2022-12-13T20:58:15.126Z,9.40
2022-12-13T21:00:41.632Z,9.40
2022-12-13T21:03:08.163Z,9.50
2022-12-13T21:05:34.624Z,9.40
2022-12-13T21:08:01.084Z,9.40
2022-12-13T21:10:27.550Z,9.40
2022-12-13T21:12:54.013Z,9.40
2022-12-13T21:15:20.483Z,9.40
2022-12-13T21:17:46.947Z,9.40
2022-12-13T21:20:13.483Z,9.40
2022-12-13T21:22:39.963Z,9.40
2022-12-13T21:25:06.444Z,9.40
2022-12-13T21:27:32.911Z,9.40
2022-12-13T21:29:59.405Z,9.40
2022-12-13T21:32:25.883Z,9.40
2022-12-13T21:34:52.389Z,9.40
2022-12-13T21:37:18.859Z,9.40
2022-12-13T21:39:45.319Z,9.40
2022-12-13T21:42:11.801Z,9.40
2022-12-13T21:44:38.266Z,9.40
2022-12-13T21:47:13.109Z,9.40
2022-12-13T21:49:40.117Z,9.40
2022-12-13T21:52:06.592Z,9.40
2022-12-13T21:54:33.072Z,9.40
2022-12-13T21:56:59.583Z,9.40
2022-12-13T21:59:26.058Z,9.40
2022-12-13T22:01:52.592Z,9.40
2022-12-13T22:04:19.071Z,9.40
2022-12-13T22:06:45.544Z,9.40
2022-12-13T22:09:11.983Z,9.40
2022-12-13T22:11:38.450Z,9.40
2022-12-13T22:14:04.895Z,9.40
2022-12-13T22:16:31.406Z,9.30
2022-12-13T22:18:57.904Z,9.30
2022-12-13T22:21:24.385Z,9.40
2022-12-13T22:23:50.851Z,9.40
2022-12-13T22:26:17.328Z,9.40
2022-12-13T22:28:43.798Z,9.40
2022-12-13T22:31:10.265Z,9.40
2022-12-13T22:33:36.728Z,9.30
2022-12-13T22:36:03.206Z,9.40
2022-12-13T22:38:29.891Z,9.30
2022-12-13T22:40:56.442Z,9.30
2022-12-13T22:43:22.884Z,9.30
2022-12-13T22:45:49.426Z,9.30
2022-12-13T22:48:15.929Z,9.30
2022-12-13T22:50:42.423Z,9.40
2022-12-13T22:53:08.885Z,9.30
2022-12-13T22:55:35.332Z,9.40
2022-12-13T22:58:01.816Z,9.40
2022-12-13T23:00:28.297Z,9.40
2022-12-13T23:02:54.886Z,9.40
2022-12-13T23:05:21.411Z,9.40
2022-12-13T23:07:48.540Z,9.40
2022-12-13T23:10:15.281Z,9.30
2022-12-13T23:12:41.735Z,9.40
2022-12-13T23:15:08.184Z,9.40
2022-12-13T23:17:34.651Z,9.30
2022-12-13T23:20:01.172Z,9.40
2022-12-13T23:22:27.686Z,9.30
2022-12-13T23:24:54.159Z,9.30
2022-12-13T23:27:20.632Z,9.30
2022-12-13T23:29:47.103Z,9.30
2022-12-13T23:32:13.577Z,9.30
2022-12-13T23:34:40.046Z,9.30
2022-12-13T23:37:06.514Z,9.30
2022-12-13T23:39:32.976Z,9.30
2022-12-13T23:41:59.454Z,9.30
2022-12-13T23:44:25.917Z,9.30
2022-12-13T23:46:52.402Z,9.30
2022-12-13T23:49:19.132Z,9.30
2022-12-13T23:51:45.610Z,9.30
2022-12-13T23:54:12.065Z,9.30
2022-12-13T23:56:38.533Z,9.30
2022-12-13T23:59:05.003Z,9.30
